Time;durP1;ratioP1;P1;durP2;ratioP2;P2;SDS_P1;SDS_P2;PMS_P1;PMS_P2;Temp;Humidity;BMP_temperature;BMP_pressure;BME280_temperature;BME280_humidity;BME280_pressure;Samples;Min_cycle;Max_cycle;Signal;HPM_P1;HPM_P2
2023/10/02 00:05:40;;;;;;;8.57;7.70;;;22.20;69.00;23.00;101320.00;;;;5007142;28;20223;-53
2023/10/02 00:08:04;;;;;;;9.03;7.37;;;22.20;69.00;23.00;101320.00;;;;5008775;28;20183;-52
2023/10/02 00:10:30;;;;;;;8.60;7.30;;;22.20;69.00;23.00;101315.00;;;;5001027;28;20537;-53
2023/10/02 00:12:59;;;;;;;7.87;7.07;;;22.20;69.10;23.00;101318.00;;;;5008876;28;20203;-53
2023/10/02 00:15:25;;;;;;;8.47;7.27;;;22.20;69.00;23.00;101327.00;;;;5008926;28;20172;-53
2023/10/02 00:17:51;;;;;;;9.00;7.40;;;22.20;69.00;23.00;101296.00;;;;5007028;28;20186;-53
2023/10/02 00:20:26;;;;;;;8.47;7.20;;;22.20;69.00;23.00;101316.00;;;;4990742;28;20191;-53
2023/10/02 00:22:52;;;;;;;8.77;7.70;;;22.20;69.00;23.00;101324.00;;;;5007312;28;20214;-52
2023/10/02 00:25:20;;;;;;;8.73;7.63;;;22.20;69.00;23.00;101325.00;;;;5008588;28;20207;-53
2023/10/02 00:27:48;;;;;;;9.83;7.43;;;22.10;68.90;23.00;101325.00;;;;4990868;28;20234;-52
2023/10/02 00:30:15;;;;;;;8.60;7.30;;;22.10;69.00;23.00;101329.00;;;;5007325;28;20175;-52
2023/10/02 00:32:42;;;;;;;8.40;7.50;;;22.10;68.90;23.00;101316.00;;;;5007292;28;20192;-52
2023/10/02 00:35:10;;;;;;;8.53;7.37;;;22.10;68.90;23.00;101314.00;;;;5008856;28;20183;-53
2023/10/02 00:37:45;;;;;;;8.87;7.27;;;22.10;68.90;23.00;101317.00;;;;5008715;28;20191;-53
2023/10/02 00:40:20;;;;;;;9.17;7.83;;;22.10;69.00;22.90;101314.00;;;;5008730;28;20179;-53
2023/10/02 00:42:55;;;;;;;10.50;7.83;;;22.10;68.90;22.90;101313.00;;;;5007368;28;20226;-53
2023/10/02 00:45:42;;;;;;;9.40;7.73;;;22.10;69.00;22.90;101317.00;;;;5007267;28;20187;-54
2023/10/02 00:48:26;;;;;;;8.87;7.80;;;22.10;69.00;22.90;101317.00;;;;5007041;28;20186;-53
2023/10/02 00:50:59;;;;;;;8.10;7.30;;;22.00;68.80;22.80;101313.00;;;;5007261;28;20251;-52
2023/10/02 00:53:38;;;;;;;8.80;7.43;;;22.00;68.90;22.80;101322.00;;;;5008778;28;20609;-53
2023/10/02 00:56:20;;;;;;;8.73;7.50;;;22.00;68.90;22.80;101326.00;;;;5007574;28;20262;-53
2023/10/02 00:58:54;;;;;;;8.33;7.20;;;22.00;68.80;22.80;101315.00;;;;5007264;28;20191;-53
2023/10/02 01:01:22;;;;;;;8.97;7.20;;;22.00;68.80;22.80;101312.00;;;;5008580;28;20684;-54
2023/10/02 01:04:48;;;;;;;8.13;7.10;;;22.00;68.70;22.80;101320.00;;;;5008324;28;20208;-53
2023/10/02 01:09:28;;;;;;;8.63;7.53;;;22.00;68.80;22.80;101307.00;;;;5007372;28;20325;-53
2023/10/02 01:11:57;;;;;;;8.57;7.50;;;21.90;68.60;22.70;101309.00;;;;5006870;28;20184;-53
2023/10/02 01:17:14;;;;;;;8.63;7.27;;;21.90;68.70;22.70;101294.00;;;;5012430;28;20284;-53
2023/10/02 01:19:57;;;;;;;10.47;7.77;;;21.90;68.70;22.70;101306.00;;;;4994141;28;20231;-53
2023/10/02 01:22:31;;;;;;;8.63;7.63;;;21.90;68.80;22.70;101309.00;;;;5011038;28;20738;-53
2023/10/02 01:25:14;;;;;;;10.87;7.60;;;21.90;68.70;22.70;101314.00;;;;4994327;28;20203;-53
2023/10/02 01:27:47;;;;;;;8.37;7.10;;;21.90;68.70;22.70;101318.00;;;;5012190;28;20262;-53
2023/10/02 01:30:20;;;;;;;7.73;6.90;;;21.90;68.70;22.70;101318.00;;;;5010336;28;20179;-52
2023/10/02 01:33:17;;;;;;;8.53;7.37;;;21.90;68.60;22.60;101317.00;;;;5010398;28;20216;-52
2023/10/02 01:35:47;;;;;;;10.43;7.40;;;21.90;68.60;22.60;101305.00;;;;5011745;28;20258;-53
2023/10/02 01:38:32;;;;;;;8.87;7.13;;;21.80;68.50;22.60;101293.00;;;;5010263;28;20210;-53
2023/10/02 01:41:06;;;;;;;8.87;7.77;;;21.80;68.50;22.60;101315.00;;;;4996312;28;20249;-54
2023/10/02 01:43:44;;;;;;;8.50;7.43;;;21.80;68.60;22.60;101307.00;;;;5011461;28;20199;-53
2023/10/02 01:46:22;;;;;;;8.57;7.27;;;21.80;68.60;22.60;101312.00;;;;5026961;28;20191;-53
2023/10/02 01:48:51;;;;;;;7.80;6.93;;;21.80;68.50;22.60;101308.00;;;;5018273;28;20188;-53
2023/10/02 01:51:21;;;;;;;8.83;7.70;;;21.80;68.40;22.60;101311.00;;;;5011878;28;20179;-53
2023/10/02 01:53:48;;;;;;;9.67;8.10;;;21.80;68.30;22.60;101306.00;;;;5011730;28;20374;-52
2023/10/02 01:56:15;;;;;;;8.27;7.27;;;21.80;68.30;22.60;101310.00;;;;5011581;28;20186;-47
2023/10/02 01:58:44;;;;;;;8.57;7.63;;;21.80;68.30;22.60;101308.00;;;;5011915;28;20273;-47
2023/10/02 02:01:10;;;;;;;8.67;7.37;;;21.80;68.30;22.50;101307.00;;;;5018407;28;20253;-47
2023/10/02 02:03:40;;;;;;;9.23;7.30;;;21.80;68.30;22.60;101317.00;;;;4995058;28;20200;-47
2023/10/02 02:06:10;;;;;;;8.50;7.57;;;21.80;68.30;22.60;101312.00;;;;5011644;28;20172;-47
2023/10/02 02:08:47;;;;;;;8.00;7.20;;;21.80;68.30;22.60;101305.00;;;;5011199;28;20247;-47
2023/10/02 02:11:23;;;;;;;8.80;7.23;;;21.80;68.40;22.50;101307.00;;;;5010608;28;20238;-47
2023/10/02 02:13:53;;;;;;;7.87;6.83;;;21.80;68.30;22.50;101308.00;;;;5010842;28;20191;-46
2023/10/02 02:16:31;;;;;;;8.43;7.60;;;21.80;68.30;22.50;101302.00;;;;5011322;28;20187;-46
2023/10/02 02:18:58;;;;;;;8.43;7.30;;;21.80;68.20;22.50;101304.00;;;;5010617;28;20230;-47
2023/10/02 02:21:24;;;;;;;10.37;7.73;;;21.80;68.20;22.50;101309.00;;;;5009822;28;20182;-47
2023/10/02 02:24:08;;;;;;;9.90;7.00;;;21.80;68.30;22.50;101305.00;;;;5008929;28;20192;-47
2023/10/02 02:26:37;;;;;;;10.50;7.63;;;21.70;68.30;22.50;101296.00;;;;5009847;28;20541;-47
2023/10/02 02:29:03;;;;;;;7.83;7.00;;;21.70;68.30;22.50;101290.00;;;;5009382;28;20553;-47
2023/10/02 02:31:30;;;;;;;8.63;7.03;;;21.70;68.20;22.50;101282.00;;;;5009430;28;20172;-47
2023/10/02 02:34:01;;;;;;;8.30;7.20;;;21.70;68.40;22.40;101292.00;;;;5010068;28;20195;-49
2023/10/02 02:36:28;;;;;;;9.33;7.20;;;21.60;68.40;22.40;101290.00;;;;5010619;28;20190;-47
2023/10/02 02:39:15;;;;;;;8.17;7.03;;;21.60;68.40;22.40;101297.00;;;;5013389;28;20198;-47
2023/10/02 02:44:43;;;;;;;8.07;7.00;;;21.70;68.50;22.40;101294.00;;;;5009461;28;20658;-47
2023/10/02 02:47:09;;;;;;;7.67;6.87;;;21.60;68.40;22.40;101224.00;;;;5010566;28;20250;-47
2023/10/02 02:49:48;;;;;;;7.97;7.13;;;21.60;68.30;22.40;101287.00;;;;4993052;28;20212;-47
2023/10/02 02:52:26;;;;;;;8.80;7.20;;;21.60;68.30;22.40;101296.00;;;;5010601;28;20299;-47
2023/10/02 02:54:59;;;;;;;8.73;6.93;;;21.60;68.30;22.40;101289.00;;;;5010327;28;20761;-47
2023/10/02 02:57:26;;;;;;;8.20;7.00;;;21.60;68.40;22.40;101259.00;;;;5008991;28;20180;-46
2023/10/02 03:02:52;;;;;;;8.77;7.63;;;21.60;68.30;22.30;101274.00;;;;5011871;28;20751;-53
2023/10/02 03:05:21;;;;;;;9.03;7.60;;;21.50;68.30;22.30;101294.00;;;;4994788;28;20199;-53
2023/10/02 03:07:49;;;;;;;8.30;7.03;;;21.50;68.30;22.20;101285.00;;;;5010981;28;20214;-53
2023/10/02 03:10:17;;;;;;;8.87;7.80;;;21.50;68.30;22.20;101290.00;;;;5011325;28;20600;-53
2023/10/02 03:12:48;;;;;;;10.07;7.67;;;21.50;68.30;22.20;101284.00;;;;5010064;28;20206;-53
2023/10/02 03:15:19;;;;;;;9.37;7.20;;;21.40;68.20;22.00;101292.00;;;;4994461;28;20192;-53
2023/10/02 03:17:46;;;;;;;10.03;7.90;;;21.40;68.20;22.20;101277.00;;;;5011125;28;20187;-52
2023/10/02 03:20:24;;;;;;;10.47;7.33;;;21.40;68.20;22.20;101279.00;;;;5010898;28;20195;-53
2023/10/02 03:22:57;;;;;;;13.13;7.27;;;21.40;68.40;22.20;101270.00;;;;4980509;28;20261;-53
2023/10/02 03:25:45;;;;;;;10.43;7.30;;;21.50;68.30;22.20;101275.00;;;;5011222;28;20226;-53
2023/10/02 03:28:27;;;;;;;9.83;7.77;;;21.40;68.20;22.20;101268.00;;;;5010804;28;20191;-52
2023/10/02 03:30:55;;;;;;;8.80;7.53;;;21.40;68.20;22.20;101265.00;;;;5009422;28;20179;-53
2023/10/02 03:33:22;;;;;;;9.40;8.20;;;21.40;68.20;22.10;101248.00;;;;5009472;28;20202;-53
2023/10/02 03:35:58;;;;;;;10.27;7.80;;;21.40;68.20;22.10;101264.00;;;;5009007;28;20187;-53
2023/10/02 03:38:32;;;;;;;9.97;8.43;;;21.30;68.20;22.00;101258.00;;;;5010627;28;20194;-54
2023/10/02 03:40:59;;;;;;;10.33;7.97;;;21.30;68.30;22.00;101267.00;;;;5006223;28;20203;-53
2023/10/02 03:43:35;;;;;;;9.30;7.57;;;21.30;68.30;22.00;101256.00;;;;5009474;28;20664;-53
2023/10/02 03:46:04;;;;;;;8.93;8.03;;;21.30;68.30;22.00;101268.00;;;;5020352;28;20186;-53
2023/10/02 03:48:32;;;;;;;9.20;7.93;;;21.30;68.30;22.00;101269.00;;;;5017259;28;20174;-53
2023/10/02 03:50:59;;;;;;;8.93;7.87;;;21.20;68.10;22.00;101273.00;;;;5003183;28;20187;-54
2023/10/02 03:53:32;;;;;;;10.30;7.97;;;21.20;68.10;22.00;101271.00;;;;5010860;28;20230;-53
2023/10/02 03:58:53;;;;;;;8.33;7.43;;;21.20;68.00;22.00;101272.00;;;;5013475;28;20194;-54
2023/10/02 04:01:29;;;;;;;8.80;7.70;;;21.30;68.10;22.00;101275.00;;;;5028888;28;20186;-58
2023/10/02 04:06:42;;;;;;;8.43;7.53;;;21.30;68.10;22.00;101261.00;;;;5008459;28;20199;-53
2023/10/02 04:11:36;;;;;;;9.57;7.80;;;21.30;67.90;22.00;101258.00;;;;5009697;28;20231;-53
2023/10/02 04:14:02;;;;;;;8.43;7.53;;;21.30;67.90;22.00;101261.00;;;;5008523;28;20231;-52
2023/10/02 04:16:28;;;;;;;9.10;7.63;;;21.30;68.00;22.00;101250.00;;;;5009349;28;20564;-53
2023/10/02 04:19:02;;;;;;;9.53;7.87;;;21.30;68.10;21.90;101249.00;;;;5008456;28;20187;-52
2023/10/02 04:21:29;;;;;;;10.33;8.10;;;21.30;68.10;22.00;101246.00;;;;4977962;28;20198;-52
2023/10/02 04:23:55;;;;;;;9.43;7.77;;;21.20;68.00;21.90;101245.00;;;;5009519;28;20210;-53
2023/10/02 04:26:22;;;;;;;9.87;7.80;;;21.20;68.00;21.90;101247.00;;;;4991947;28;20263;-53
2023/10/02 04:28:56;;;;;;;9.17;7.40;;;21.20;68.00;21.90;101235.00;;;;5009009;28;20202;-53
2023/10/02 04:31:29;;;;;;;10.77;8.27;;;21.20;68.00;21.90;101235.00;;;;5007924;28;20241;-53
2023/10/02 04:36:43;;;;;;;11.70;8.20;;;21.10;68.10;21.90;101240.00;;;;5008120;28;20409;-53
2023/10/02 04:42:15;;;;;;;19.77;9.53;;;21.10;68.20;21.80;101240.00;;;;4992749;28;20187;-52
2023/10/02 04:44:44;;;;;;;16.43;8.43;;;21.00;68.30;21.80;101244.00;;;;5007649;28;20257;-53
2023/10/02 04:47:20;;;;;;;13.23;8.50;;;21.10;68.30;21.80;101247.00;;;;5009611;28;20188;-54
2023/10/02 04:50:34;;;;;;;13.33;8.77;;;21.10;68.40;21.80;101245.00;;;;5009127;28;20194;-52
2023/10/02 04:52:55;;;;;;;15.67;9.30;;;21.00;68.20;21.80;101241.00;;;;5016287;28;20206;-52
2023/10/02 04:55:27;;;;;;;11.50;8.63;;;21.10;68.10;21.80;101239.00;;;;5014999;28;20182;-53
2023/10/02 04:58:09;;;;;;;12.90;8.37;;;21.00;68.00;21.80;101239.00;;;;5015663;28;20215;-52
2023/10/02 05:00:38;;;;;;;13.77;8.70;;;21.10;68.10;21.80;101225.00;;;;5015455;28;20336;-52
2023/10/02 05:03:17;;;;;;;13.33;8.97;;;21.00;68.00;21.80;101232.00;;;;5015520;28;20209;-52
2023/10/02 05:05:49;;;;;;;13.33;8.50;;;21.00;68.10;21.80;101234.00;;;;5015751;28;20780;-52
2023/10/02 05:08:29;;;;;;;11.87;8.07;;;21.00;68.20;21.70;101233.00;;;;5015769;28;20175;-53
2023/10/02 05:11:04;;;;;;;11.67;8.90;;;21.00;68.20;21.70;101219.00;;;;5015455;28;20183;-53
2023/10/02 05:13:53;;;;;;;11.13;8.33;;;21.00;68.00;21.70;101232.00;;;;5014108;28;21029;-52
2023/10/02 05:16:38;;;;;;;12.60;8.63;;;21.10;68.20;21.70;101220.00;;;;5014352;28;20211;-52
2023/10/02 05:19:06;;;;;;;12.97;8.33;;;21.00;68.90;21.70;101231.00;;;;5015432;28;20206;-53
2023/10/02 05:21:49;;;;;;;15.50;8.37;;;21.00;68.40;21.70;101226.00;;;;5014960;28;20187;-54
2023/10/02 05:24:15;;;;;;;14.57;8.63;;;21.00;68.40;21.70;101240.00;;;;5015257;28;20686;-52
2023/10/02 05:26:44;;;;;;;10.80;8.30;;;21.00;68.60;21.70;101229.00;;;;5015152;28;20182;-53
2023/10/02 05:29:17;;;;;;;14.63;8.97;;;21.00;68.50;21.70;101234.00;;;;5014654;28;20188;-53
2023/10/02 05:31:46;;;;;;;12.30;8.10;;;21.00;68.50;21.70;101232.00;;;;5014799;28;20179;-53
2023/10/02 05:34:21;;;;;;;12.40;8.60;;;21.00;68.50;21.70;101240.00;;;;5015229;28;20203;-52
2023/10/02 05:39:34;;;;;;;12.83;8.40;;;20.90;68.50;21.60;101247.00;;;;5014956;28;20183;-53
2023/10/02 05:42:06;;;;;;;10.77;8.60;;;20.90;68.60;21.60;101246.00;;;;5015108;28;20246;-53
2023/10/02 05:44:36;;;;;;;12.13;8.73;;;20.90;68.60;21.60;101242.00;;;;5034847;28;20199;-52
2023/10/02 05:47:05;;;;;;;11.47;8.33;;;20.90;68.40;21.60;101248.00;;;;5022073;28;20180;-53
2023/10/02 05:49:32;;;;;;;10.17;8.60;;;20.80;68.60;21.50;101250.00;;;;5015095;28;20574;-53
2023/10/02 05:52:00;;;;;;;10.53;8.43;;;20.80;68.60;21.50;101254.00;;;;5013973;28;20270;-52
2023/10/02 05:54:29;;;;;;;11.23;8.70;;;20.80;68.60;21.50;101252.00;;;;5015334;28;20183;-52
2023/10/02 05:57:09;;;;;;;12.00;8.17;;;20.80;68.70;21.50;101257.00;;;;5016347;28;20237;-52
2023/10/02 05:59:54;;;;;;;11.07;8.50;;;20.80;68.80;21.50;101270.00;;;;5030663;28;20183;-53
2023/10/02 06:02:24;;;;;;;10.40;8.50;;;20.80;68.60;21.30;101264.00;;;;5012458;28;20196;-54
2023/10/02 06:04:52;;;;;;;11.20;8.83;;;20.80;68.60;21.50;101266.00;;;;5012154;28;20200;-53
2023/10/02 06:07:43;;;;;;;10.23;8.57;;;20.80;69.30;21.50;101250.00;;;;5011999;28;20186;-52
2023/10/02 06:10:27;;;;;;;10.80;8.87;;;20.80;68.60;21.10;101281.00;;;;5010975;28;20182;-53
2023/10/02 06:13:05;;;;;;;11.60;8.73;;;20.80;68.70;21.50;101276.00;;;;5011575;28;20188;-53
2023/10/02 06:15:46;;;;;;;10.83;8.73;;;20.80;68.60;21.50;101277.00;;;;5011623;28;20725;-53
2023/10/02 06:18:24;;;;;;;9.17;8.03;;;20.80;68.60;21.50;101289.00;;;;5005912;28;20175;-53
2023/10/02 06:21:00;;;;;;;11.03;8.53;;;20.80;68.60;21.50;101284.00;;;;5011150;28;20184;-52
2023/10/02 06:23:29;;;;;;;10.47;8.00;;;20.80;68.60;21.50;101277.00;;;;5011513;28;20199;-53
2023/10/02 06:25:58;;;;;;;10.93;8.77;;;20.80;68.60;21.40;101280.00;;;;5012337;28;20571;-53
2023/10/02 06:28:27;;;;;;;9.90;8.40;;;20.70;68.50;21.50;101278.00;;;;5013470;28;20657;-53
2023/10/02 06:30:54;;;;;;;10.40;8.70;;;20.70;68.60;21.50;101273.00;;;;5014088;28;20190;-52
2023/10/02 06:33:21;;;;;;;11.83;8.67;;;20.80;68.70;21.50;101271.00;;;;5012150;28;20279;-52
2023/10/02 06:35:57;;;;;;;11.73;8.30;;;20.80;68.70;21.40;101270.00;;;;5010379;28;20191;-53
2023/10/02 06:38:23;;;;;;;14.07;8.27;;;20.80;68.70;21.50;101274.00;;;;5010416;28;20191;-54
2023/10/02 06:40:58;;;;;;;10.97;7.60;;;20.80;68.80;21.50;101276.00;;;;5010994;28;20187;-53
2023/10/02 06:43:31;;;;;;;11.17;8.50;;;20.70;68.80;21.40;101276.00;;;;5011513;28;20682;-52
2023/10/02 06:46:13;;;;;;;10.70;8.70;;;20.70;68.80;21.40;101277.00;;;;5005027;28;20261;-53
2023/10/02 06:48:39;;;;;;;12.50;8.70;;;20.70;68.70;21.40;101272.00;;;;5011197;28;20631;-53
2023/10/02 06:51:07;;;;;;;11.60;9.20;;;20.70;68.70;21.40;101280.00;;;;5009526;28;20275;-52
2023/10/02 06:53:33;;;;;;;12.60;8.40;;;20.70;68.70;21.40;101274.00;;;;5010711;28;20239;-52
2023/10/02 06:56:03;;;;;;;11.47;8.57;;;20.70;68.80;21.40;101269.00;;;;5011031;28;20198;-53
2023/10/02 06:58:29;;;;;;;10.90;8.03;;;20.70;68.80;21.40;101276.00;;;;5010776;28;20198;-55
2023/10/02 07:00:55;;;;;;;10.63;8.67;;;20.70;68.80;21.40;101274.00;;;;5010225;28;20188;-53
2023/10/02 07:03:21;;;;;;;11.03;8.30;;;20.70;68.90;21.40;101266.00;;;;5009620;28;20245;-54
2023/10/02 07:05:48;;;;;;;10.47;8.73;;;20.70;69.00;21.40;101270.00;;;;5010421;28;20742;-52
2023/10/02 07:08:26;;;;;;;13.50;8.10;;;20.60;69.00;21.40;101277.00;;;;5009150;28;20259;-52
2023/10/02 07:10:52;;;;;;;10.57;9.00;;;20.60;69.20;21.30;101267.00;;;;5002211;28;20917;-52
2023/10/02 07:13:22;;;;;;;10.43;8.90;;;20.60;69.30;21.30;101253.00;;;;5008460;28;20271;-52
2023/10/02 07:15:59;;;;;;;10.47;8.90;;;20.60;69.20;21.30;101261.00;;;;5009618;28;20213;-52
2023/10/02 07:18:36;;;;;;;10.13;8.20;;;20.60;69.30;21.30;101264.00;;;;5009156;28;20618;-54
2023/10/02 07:21:07;;;;;;;10.50;8.97;;;20.60;69.50;21.30;101273.00;;;;5008146;28;20646;-53
2023/10/02 07:23:37;;;;;;;11.73;9.00;;;20.60;69.40;21.30;101278.00;;;;5007452;28;20432;-53
2023/10/02 07:26:04;;;;;;;10.30;8.90;;;20.50;69.40;21.30;101275.00;;;;5008444;28;20208;-53
2023/10/02 07:28:31;;;;;;;11.27;9.00;;;20.60;69.50;21.30;101273.00;;;;5009471;28;20179;-53
2023/10/02 07:30:57;;;;;;;10.77;8.73;;;20.60;69.60;21.20;101269.00;;;;5008039;28;20191;-53
2023/10/02 07:33:23;;;;;;;10.70;8.83;;;20.60;69.50;21.30;101275.00;;;;5008935;28;20195;-53
2023/10/02 07:35:54;;;;;;;9.37;8.30;;;20.60;69.40;21.30;101281.00;;;;5009571;28;20608;-53
2023/10/02 07:38:21;;;;;;;10.80;8.33;;;20.60;69.30;21.30;101264.00;;;;5008895;28;20171;-54
2023/10/02 07:40:48;;;;;;;10.20;8.37;;;20.60;69.40;21.30;101270.00;;;;5014944;28;20182;-53
2023/10/02 07:43:20;;;;;;;11.07;8.50;;;20.60;69.40;21.30;101281.00;;;;5023975;28;20287;-53
2023/10/02 07:46:02;;;;;;;10.57;8.63;;;20.60;69.50;21.30;101275.00;;;;5010608;28;20214;-52
2023/10/02 07:48:33;;;;;;;12.50;9.23;;;20.60;69.50;21.30;101279.00;;;;5009777;28;20215;-52
2023/10/02 07:51:00;;;;;;;10.23;8.90;;;20.60;69.60;21.30;101267.00;;;;5010160;28;20195;-53
2023/10/02 07:53:38;;;;;;;10.20;8.57;;;20.60;69.90;21.30;101265.00;;;;5007467;28;20196;-53
2023/10/02 07:56:11;;;;;;;11.00;9.30;;;20.60;69.80;21.20;101266.00;;;;5021636;28;20227;-53
2023/10/02 07:58:37;;;;;;;10.87;9.23;;;20.60;69.80;21.30;101254.00;;;;5014280;28;20271;-53
2023/10/02 08:01:11;;;;;;;11.00;9.20;;;20.60;70.10;21.30;101264.00;;;;5007132;28;20167;-54
2023/10/02 08:03:43;;;;;;;10.53;9.00;;;20.60;70.00;21.30;101270.00;;;;5006342;28;20982;-53
2023/10/02 08:11:45;;;;;;;14.67;10.07;;;20.60;70.20;21.30;101263.00;;;;5009899;28;20206;-52
2023/10/02 08:14:34;;;;;;;15.07;9.83;;;20.60;70.50;21.30;101264.00;;;;5008939;28;20199;-52
2023/10/02 08:16:59;;;;;;;13.73;9.10;;;20.60;70.50;21.30;101274.00;;;;5009492;28;20187;-53
2023/10/02 08:19:24;;;;;;;14.10;9.53;;;20.60;70.60;21.30;101268.00;;;;5009366;28;20718;-51
2023/10/02 08:21:53;;;;;;;13.60;8.97;;;20.60;70.90;21.30;101261.00;;;;5009167;28;20186;-53
2023/10/02 08:24:19;;;;;;;12.30;9.47;;;20.60;70.90;21.30;101244.00;;;;5008287;28;20382;-53
2023/10/02 08:26:45;;;;;;;11.90;9.13;;;20.60;70.60;21.30;101263.00;;;;5009242;28;20282;-52
2023/10/02 08:29:14;;;;;;;13.03;9.07;;;20.70;70.80;21.40;101258.00;;;;5009787;28;20242;-52
2023/10/02 08:31:48;;;;;;;11.17;9.37;;;20.70;70.90;21.40;101260.00;;;;5009840;28;20539;-51
2023/10/02 08:34:24;;;;;;;11.80;9.43;;;20.60;70.80;21.40;101250.00;;;;5009708;28;20641;-53
2023/10/02 08:37:07;;;;;;;13.17;9.20;;;20.70;70.90;21.40;101252.00;;;;5009448;28;20222;-53
2023/10/02 08:39:37;;;;;;;12.17;9.50;;;20.70;70.90;21.40;101245.00;;;;5009647;28;20286;-53
2023/10/02 08:42:09;;;;;;;12.87;9.83;;;20.70;71.10;21.40;101246.00;;;;5008633;28;20176;-52
2023/10/02 08:44:38;;;;;;;11.30;9.10;;;20.70;71.00;21.40;101249.00;;;;5009407;28;20218;-52
2023/10/02 08:47:24;;;;;;;12.23;9.47;;;20.70;71.20;21.50;101243.00;;;;5009593;28;20179;-54
2023/10/02 08:50:05;;;;;;;11.10;9.10;;;20.70;71.10;21.40;101253.00;;;;5008381;28;20187;-52
2023/10/02 08:52:47;;;;;;;12.03;9.50;;;20.70;71.20;21.40;101253.00;;;;5009565;28;20214;-52
2023/10/02 08:55:51;;;;;;;11.73;9.80;;;20.70;71.30;21.50;101246.00;;;;5009578;28;20175;-52
2023/10/02 08:58:21;;;;;;;12.57;9.97;;;20.70;71.60;21.40;101244.00;;;;5009550;28;20606;-52
2023/10/02 09:03:41;;;;;;;12.20;9.97;;;20.70;71.50;21.50;101249.00;;;;5009510;28;20211;-52
2023/10/02 09:06:25;;;;;;;11.67;9.90;;;20.80;71.80;21.50;101246.00;;;;5009989;28;20183;-52
2023/10/02 09:11:36;;;;;;;13.70;9.87;;;20.70;71.80;21.50;101242.00;;;;5009446;28;20214;-52
2023/10/02 09:17:07;;;;;;;13.90;10.10;;;20.70;72.10;21.50;101250.00;;;;5009237;28;20835;-53
2023/10/02 09:19:37;;;;;;;12.40;10.60;;;20.70;72.00;21.50;101241.00;;;;5008008;28;20202;-53
2023/10/02 09:22:06;;;;;;;13.83;10.50;;;20.80;72.30;21.50;101239.00;;;;5009167;28;20172;-53
2023/10/02 09:24:55;;;;;;;12.43;9.80;;;20.80;72.20;21.50;101252.00;;;;4991932;28;20199;-52
2023/10/02 09:27:30;;;;;;;12.23;9.87;;;20.80;72.30;21.50;101235.00;;;;5009546;28;20191;-52
2023/10/02 09:30:21;;;;;;;13.43;10.43;;;20.80;72.40;21.60;101241.00;;;;5008083;28;20179;-52
2023/10/02 09:32:51;;;;;;;12.60;9.70;;;20.80;72.50;21.60;101237.00;;;;5009246;28;20204;-52
2023/10/02 09:35:25;;;;;;;12.43;10.33;;;20.80;72.50;21.60;101228.00;;;;5009571;28;20191;-52
2023/10/02 09:38:02;;;;;;;11.20;9.77;;;20.80;72.70;21.60;101213.00;;;;5012419;28;20250;-53
2023/10/02 09:40:53;;;;;;;13.80;10.20;;;20.80;72.90;21.60;101222.00;;;;5004473;28;20199;-52
2023/10/02 09:43:17;;;;;;;12.83;10.40;;;20.80;72.90;21.60;101220.00;;;;5026035;28;20204;-52
2023/10/02 09:45:46;;;;;;;12.73;10.20;;;20.80;73.20;21.60;101221.00;;;;5011371;28;20214;-51
2023/10/02 09:48:46;;;;;;;13.10;9.80;;;20.80;73.30;21.60;101220.00;;;;4979847;28;20179;-52
2023/10/02 09:51:06;;;;;;;14.83;11.10;;;20.90;73.50;21.70;101214.00;;;;5011659;28;20192;-52
2023/10/02 09:53:39;;;;;;;13.90;10.47;;;20.90;74.20;21.70;101210.00;;;;4996593;28;20204;-53
2023/10/02 09:56:14;;;;;;;12.73;10.23;;;20.90;74.00;21.70;101202.00;;;;5011743;28;20187;-52
2023/10/02 09:58:49;;;;;;;14.10;11.37;;;21.00;73.70;21.70;101202.00;;;;5005746;28;20175;-53
2023/10/02 10:01:43;;;;;;;13.03;10.70;;;21.00;74.40;21.70;101209.00;;;;5013300;28;20187;-52
2023/10/02 10:07:09;;;;;;;12.03;9.87;;;21.00;74.10;21.80;101203.00;;;;5012561;28;20195;-53
2023/10/02 10:09:51;;;;;;;12.80;10.67;;;21.00;74.10;21.80;101207.00;;;;5013731;28;20667;-52
2023/10/02 10:12:21;;;;;;;13.30;10.17;;;21.00;74.20;21.80;101188.00;;;;5015076;28;20188;-52
2023/10/02 10:14:54;;;;;;;13.30;10.07;;;21.10;74.50;21.80;101196.00;;;;5012556;28;20194;-53
2023/10/02 10:17:21;;;;;;;12.40;10.23;;;21.10;74.80;21.80;101191.00;;;;5012231;28;20194;-53
2023/10/02 10:20:09;;;;;;;12.53;10.30;;;21.10;74.90;21.80;101192.00;;;;5011838;28;20459;-52
2023/10/02 10:22:50;;;;;;;12.87;9.77;;;21.10;74.90;21.80;101192.00;;;;5010353;28;20688;-52
2023/10/02 10:28:04;;;;;;;14.37;11.00;;;21.10;75.60;21.90;101174.00;;;;5010997;28;20211;-53
2023/10/02 10:30:38;;;;;;;14.30;11.27;;;21.20;75.60;21.90;101175.00;;;;5011842;28;20595;-52
2023/10/02 10:33:27;;;;;;;12.67;10.77;;;21.20;75.10;21.90;101174.00;;;;5013738;28;20206;-52
2023/10/02 10:35:57;;;;;;;16.40;11.10;;;21.30;75.60;22.00;101164.00;;;;5011483;28;20643;-53
2023/10/02 10:38:36;;;;;;;16.33;11.03;;;21.30;76.20;22.00;101163.00;;;;5011249;28;20294;-52
2023/10/02 10:41:09;;;;;;;16.67;11.07;;;21.40;76.70;22.00;101168.00;;;;5008187;28;20335;-51
2023/10/02 10:43:44;;;;;;;17.83;13.87;;;21.40;76.80;22.10;101176.00;;;;5009149;28;20314;-51
2023/10/02 10:46:19;;;;;;;16.57;12.63;;;21.40;77.40;22.10;101164.00;;;;5009012;28;20210;-51
2023/10/02 10:48:48;;;;;;;17.77;12.40;;;21.40;77.90;22.10;101149.00;;;;5008510;28;20290;-52
2023/10/02 10:51:21;;;;;;;18.07;12.20;;;21.50;78.20;22.20;101165.00;;;;4994152;28;20789;-52
2023/10/02 10:53:52;;;;;;;16.23;12.60;;;21.50;78.00;22.20;101160.00;;;;5011366;28;20723;-52
2023/10/02 10:56:22;;;;;;;16.63;11.33;;;21.50;78.10;22.30;101156.00;;;;5010210;28;20184;-53
2023/10/02 10:58:53;;;;;;;15.70;12.20;;;21.60;78.00;22.30;101164.00;;;;5010575;28;20190;-53
2023/10/02 11:01:21;;;;;;;16.73;11.73;;;21.70;76.60;22.40;101149.00;;;;5011099;28;20233;-53
2023/10/02 11:03:54;;;;;;;15.43;11.57;;;21.80;76.20;22.40;101175.00;;;;5009923;28;20191;-53
2023/10/02 11:06:23;;;;;;;15.47;12.07;;;21.70;76.10;22.40;101175.00;;;;5011367;28;20186;-53
2023/10/02 11:09:11;;;;;;;15.50;11.60;;;21.70;75.70;22.50;101176.00;;;;5009319;28;20330;-53
2023/10/02 11:11:49;;;;;;;16.50;11.83;;;21.80;75.60;22.50;101180.00;;;;5010402;28;20742;-53
2023/10/02 11:14:21;;;;;;;14.93;11.80;;;21.80;74.90;22.50;101167.00;;;;5009403;28;20566;-53
2023/10/02 11:16:56;;;;;;;14.10;11.70;;;21.90;73.40;22.60;101171.00;;;;5010530;28;20295;-53
2023/10/02 11:22:16;;;;;;;16.07;12.23;;;22.00;72.60;22.70;101164.00;;;;5010515;28;20180;-51
2023/10/02 11:24:52;;;;;;;15.53;12.27;;;22.00;71.80;22.70;101178.00;;;;5010348;28;20230;-53
2023/10/02 11:27:18;;;;;;;14.73;11.53;;;22.00;71.60;22.70;101157.00;;;;5010205;28;20784;-52
2023/10/02 11:30:00;;;;;;;16.27;12.00;;;22.10;71.90;22.80;101162.00;;;;5009024;28;20258;-52
2023/10/02 11:32:59;;;;;;;14.93;11.33;;;22.10;71.90;22.80;101151.00;;;;5009341;28;20266;-53
2023/10/02 11:35:28;;;;;;;13.60;10.77;;;22.10;72.70;22.80;101147.00;;;;5009814;28;20180;-54
2023/10/02 11:37:55;;;;;;;16.77;11.57;;;22.10;73.10;22.90;101152.00;;;;5009476;28;20223;-54
2023/10/02 11:40:25;;;;;;;13.70;10.83;;;22.10;73.20;22.90;101140.00;;;;5010549;28;20187;-53
2023/10/02 11:42:51;;;;;;;14.57;11.97;;;22.20;72.80;23.00;101131.00;;;;5019385;28;20761;-53
2023/10/02 11:45:17;;;;;;;13.93;11.27;;;22.30;72.70;23.00;101134.00;;;;5020826;28;20389;-53
2023/10/02 11:47:43;;;;;;;15.20;11.57;;;22.30;73.20;23.00;101129.00;;;;5010303;28;20191;-54
2023/10/02 11:50:09;;;;;;;14.33;11.13;;;22.20;73.30;23.00;101136.00;;;;5010130;28;20167;-52
2023/10/02 11:52:35;;;;;;;14.97;11.37;;;22.30;72.00;23.10;101138.00;;;;5009953;28;20286;-53
2023/10/02 11:55:01;;;;;;;14.07;11.37;;;22.40;71.90;23.20;101138.00;;;;5010346;28;20176;-53
2023/10/02 11:57:27;;;;;;;15.90;11.87;;;22.50;71.70;23.20;101128.00;;;;5016910;28;20168;-53
2023/10/02 11:59:53;;;;;;;13.97;11.10;;;22.50;72.00;23.30;101129.00;;;;5021971;28;20188;-53